createdAt,value
2023-05-04T00:03:40.481Z,48.33
2023-05-04T00:08:42.525Z,48.35
2023-05-04T00:13:44.555Z,48.33
2023-05-04T00:18:46.441Z,48.57
2023-05-04T00:23:51.769Z,48.67
2023-05-04T00:28:53.708Z,48.73
2023-05-04T00:33:55.570Z,48.58
2023-05-04T00:38:57.402Z,48.59
2023-05-04T00:43:59.914Z,48.69
2023-05-04T00:49:02.321Z,48.72
2023-05-04T00:54:05.161Z,48.92
2023-05-04T00:59:07.107Z,48.87
2023-05-04T01:04:09.825Z,49.26
2023-05-04T01:09:37.400Z,49.13
2023-05-04T01:14:40.048Z,49.14
2023-05-04T01:19:41.870Z,49.27
2023-05-04T01:24:43.919Z,49.31
2023-05-04T01:30:02.905Z,49.40
2023-05-04T01:35:06.373Z,49.28
2023-05-04T01:40:09.514Z,49.37
2023-05-04T01:52:01.604Z,49.55
2023-05-04T01:57:03.613Z,49.57
2023-05-04T02:02:05.680Z,49.57
2023-05-04T02:07:08.016Z,49.83
2023-05-04T02:12:10.011Z,49.78
2023-05-04T02:17:12.082Z,49.77
2023-05-04T02:22:14.067Z,49.99
2023-05-04T02:27:16.228Z,50.08
2023-05-04T02:32:18.155Z,50.00
2023-05-04T02:37:20.116Z,50.30
2023-05-04T02:42:22.154Z,50.38
2023-05-04T02:47:24.120Z,50.34
2023-05-04T02:52:26.160Z,50.46
2023-05-04T02:57:28.106Z,50.30
2023-05-04T03:03:12.795Z,50.65
2023-05-04T03:08:19.807Z,50.51
2023-05-04T03:13:27.686Z,50.57
2023-05-04T03:18:36.610Z,50.58
2023-05-04T03:24:07.610Z,50.80
2023-05-04T03:29:10.614Z,50.60
2023-05-04T03:34:15.524Z,50.95
2023-05-04T03:39:18.012Z,50.86
2023-05-04T03:44:20.619Z,50.91
2023-05-04T03:49:22.572Z,50.87
2023-05-04T03:54:24.466Z,51.09
2023-05-04T03:59:26.353Z,51.20
2023-05-04T04:04:28.734Z,51.10
2023-05-04T04:09:32.351Z,51.29
2023-05-04T04:14:34.253Z,51.42
2023-05-04T04:19:36.064Z,51.54
2023-05-04T04:24:38.257Z,51.58
2023-05-04T04:29:40.139Z,51.54
2023-05-04T04:34:41.893Z,51.51
2023-05-04T04:39:43.786Z,51.58
2023-05-04T04:44:45.798Z,51.59
2023-05-04T04:49:47.886Z,51.57
2023-05-04T04:54:49.800Z,51.82
2023-05-04T04:59:51.596Z,51.74
2023-05-04T05:04:54.668Z,52.02
2023-05-04T05:09:56.834Z,51.99
2023-05-04T05:14:58.666Z,51.90
2023-05-04T05:20:00.532Z,52.17
2023-05-04T05:25:03.166Z,52.38
2023-05-04T05:30:06.387Z,52.27
2023-05-04T05:35:09.618Z,52.54
2023-05-04T05:40:12.414Z,52.57
2023-05-04T05:45:14.246Z,52.75
2023-05-04T05:50:16.068Z,52.66
2023-05-04T05:55:17.936Z,52.65
2023-05-04T06:00:20.091Z,52.75
2023-05-04T06:05:21.965Z,52.80
2023-05-04T06:10:23.915Z,52.80
2023-05-04T06:15:26.046Z,52.95
2023-05-04T06:20:29.241Z,53.04
2023-05-04T06:25:31.398Z,52.87
2023-05-04T06:30:33.592Z,52.64
2023-05-04T06:35:35.727Z,52.56
2023-05-04T06:40:37.797Z,52.54
2023-05-04T06:45:40.021Z,52.55
2023-05-04T06:50:42.351Z,52.63
2023-05-04T06:55:44.461Z,52.69
2023-05-04T07:00:46.323Z,53.00
2023-05-04T07:05:50.574Z,53.09
2023-05-04T07:10:52.379Z,53.45
2023-05-04T07:15:54.302Z,53.80
2023-05-04T07:21:01.744Z,53.93
2023-05-04T07:26:13.457Z,54.11
2023-05-04T07:31:16.041Z,54.37
2023-05-04T07:36:18.190Z,54.64
2023-05-04T07:41:22.999Z,54.57
2023-05-04T07:46:24.890Z,54.38
2023-05-04T07:51:26.728Z,54.48
2023-05-04T07:56:28.776Z,54.34
2023-05-04T08:01:30.641Z,53.81
2023-05-04T08:06:34.767Z,53.14
2023-05-04T08:11:37.946Z,53.42
2023-05-04T08:16:40.543Z,52.77
2023-05-04T08:21:42.445Z,51.88
2023-05-04T08:26:49.604Z,51.37
2023-05-04T08:31:59.704Z,50.96
2023-05-04T08:37:02.642Z,50.02
2023-05-04T08:42:04.675Z,49.73
2023-05-04T08:47:06.430Z,48.76
2023-05-04T08:52:09.451Z,48.32
2023-05-04T08:57:12.574Z,47.86
2023-05-04T09:02:14.584Z,47.01
2023-05-04T09:07:18.110Z,46.75
2023-05-04T09:12:23.049Z,46.66
2023-05-04T09:17:29.461Z,46.71
2023-05-04T09:22:31.543Z,46.53
2023-05-04T09:27:33.446Z,46.82
2023-05-04T09:32:50.833Z,46.13
2023-05-04T09:37:52.758Z,46.27
2023-05-04T09:42:58.155Z,46.64
2023-05-04T09:48:00.262Z,46.41
2023-05-04T09:53:03.884Z,46.15
2023-05-04T09:58:06.505Z,46.11
2023-05-04T10:03:08.789Z,45.81
2023-05-04T10:08:12.637Z,45.98
2023-05-04T10:13:14.545Z,45.50
2023-05-04T10:18:34.075Z,45.28
2023-05-04T10:23:58.230Z,45.20
2023-05-04T10:29:13.776Z,44.84
2023-05-04T10:34:30.195Z,44.68
2023-05-04T10:39:35.586Z,44.84
2023-05-04T10:44:55.436Z,44.46
2023-05-04T10:50:06.465Z,44.21
2023-05-04T10:55:09.144Z,44.41
2023-05-04T11:00:12.140Z,44.06
2023-05-04T11:05:18.482Z,44.05
2023-05-04T11:10:22.679Z,43.76
2023-05-04T11:15:24.644Z,43.41
2023-05-04T11:20:27.678Z,43.64
2023-05-04T11:25:30.820Z,43.52
2023-05-04T11:30:34.468Z,42.96
2023-05-04T11:35:36.437Z,43.10
2023-05-04T11:40:41.409Z,43.05
2023-05-04T11:45:44.507Z,42.65
2023-05-04T11:50:47.865Z,42.82
2023-05-04T11:55:50.563Z,42.38
2023-05-04T12:00:56.880Z,42.58
2023-05-04T12:06:00.006Z,42.49
2023-05-04T12:11:25.577Z,41.92
2023-05-04T12:16:27.714Z,42.39
2023-05-04T12:21:29.816Z,42.07
2023-05-04T12:26:31.774Z,41.75
2023-05-04T12:31:33.888Z,41.79
2023-05-04T12:36:35.708Z,41.53
2023-05-04T12:41:37.723Z,41.13
2023-05-04T12:46:39.753Z,40.88
2023-05-04T12:51:41.776Z,41.00
2023-05-04T12:56:43.871Z,40.54
2023-05-04T13:01:46.175Z,40.16
2023-05-04T13:06:48.694Z,40.07
2023-05-04T13:11:50.448Z,39.84
2023-05-04T13:16:52.818Z,39.59
2023-05-04T13:21:54.713Z,39.90
2023-05-04T13:26:56.704Z,39.72
2023-05-04T13:31:59.674Z,39.86
2023-05-04T13:37:01.600Z,39.75
2023-05-04T13:42:04.061Z,39.19
2023-05-04T13:47:06.247Z,39.34
2023-05-04T13:52:08.807Z,38.67
2023-05-04T13:57:10.738Z,38.87
2023-05-04T14:02:12.716Z,38.70
2023-05-04T14:07:14.614Z,38.78
2023-05-04T14:12:18.586Z,38.88
2023-05-04T14:17:20.654Z,38.54
2023-05-04T14:22:22.594Z,39.10
2023-05-04T14:27:24.579Z,38.64
2023-05-04T14:32:26.542Z,38.38
2023-05-04T14:37:28.435Z,38.48
2023-05-04T14:42:30.236Z,38.69
2023-05-04T14:47:33.579Z,38.62
2023-05-04T14:52:35.613Z,38.39
2023-05-04T14:57:37.587Z,38.15
2023-05-04T15:02:39.543Z,38.18
2023-05-04T15:07:41.631Z,38.36
2023-05-04T15:12:43.573Z,38.44
2023-05-04T15:17:45.599Z,38.33
2023-05-04T15:22:49.174Z,38.20
2023-05-04T15:27:50.999Z,38.12
2023-05-04T15:32:53.072Z,38.09
2023-05-04T15:37:55.340Z,38.36
2023-05-04T15:42:57.394Z,38.34
2023-05-04T15:48:00.373Z,37.72
2023-05-04T15:53:02.354Z,37.89
2023-05-04T15:58:04.354Z,38.19
2023-05-04T16:03:06.234Z,38.29
2023-05-04T16:08:08.183Z,37.96
2023-05-04T16:13:12.013Z,37.82
2023-05-04T16:18:14.128Z,37.62
2023-05-04T16:23:17.514Z,37.60
2023-05-04T16:28:20.571Z,37.78
2023-05-04T16:33:22.571Z,37.69
2023-05-04T16:38:24.382Z,37.68
2023-05-04T16:43:26.556Z,37.42
2023-05-04T16:48:28.402Z,37.67
2023-05-04T16:53:30.489Z,37.96
2023-05-04T16:58:32.351Z,38.72
2023-05-04T17:03:34.320Z,39.46
2023-05-04T17:08:36.486Z,39.94
2023-05-04T17:13:38.385Z,40.15
2023-05-04T17:18:40.493Z,40.30
2023-05-04T17:23:43.477Z,40.81
2023-05-04T17:28:48.426Z,40.95
2023-05-04T17:33:50.259Z,41.07
2023-05-04T17:38:52.404Z,41.52
2023-05-04T17:43:55.670Z,41.31
2023-05-04T17:48:57.413Z,41.32
2023-05-04T17:53:59.213Z,41.31
2023-05-04T17:59:01.092Z,41.29
2023-05-04T18:04:05.720Z,41.37
2023-05-04T18:09:07.607Z,41.14
2023-05-04T18:14:09.406Z,41.35
2023-05-04T18:19:11.146Z,41.11
2023-05-04T18:24:12.974Z,41.26
2023-05-04T18:29:18.889Z,41.61
2023-05-04T18:34:22.817Z,41.56
2023-05-04T18:39:24.780Z,41.47
2023-05-04T18:44:26.607Z,41.69
2023-05-04T18:49:31.369Z,41.90
2023-05-04T18:54:33.545Z,42.05
2023-05-04T18:59:35.511Z,42.05
2023-05-04T19:04:38.310Z,42.43
2023-05-04T19:09:40.190Z,42.74
2023-05-04T19:14:44.058Z,42.68
2023-05-04T19:19:45.920Z,42.90
2023-05-04T19:24:51.742Z,43.12
2023-05-04T19:29:56.156Z,43.18
2023-05-04T19:34:58.219Z,43.27
2023-05-04T19:39:59.956Z,43.50
2023-05-04T19:45:01.829Z,43.44
2023-05-04T19:50:03.904Z,43.46
2023-05-04T19:55:06.998Z,43.67
2023-05-04T20:00:12.858Z,43.64
2023-05-04T20:05:14.816Z,43.71
2023-05-04T20:10:16.667Z,43.74
2023-05-04T20:15:18.460Z,43.83
2023-05-04T20:20:22.025Z,43.88
2023-05-04T20:25:23.957Z,43.67
2023-05-04T20:30:28.278Z,43.66
2023-05-04T20:35:30.168Z,43.77
2023-05-04T20:40:32.212Z,43.91
2023-05-04T20:45:34.682Z,44.23
2023-05-04T20:50:36.702Z,44.23
2023-05-04T20:55:40.572Z,43.91
2023-05-04T21:00:42.454Z,44.06
2023-05-04T21:05:44.300Z,43.67
2023-05-04T21:10:48.993Z,43.57
2023-05-04T21:15:51.520Z,43.74
2023-05-04T21:20:54.246Z,43.74
2023-05-04T21:26:03.582Z,43.77
2023-05-04T21:31:09.256Z,43.74
2023-05-04T21:36:14.939Z,44.08
2023-05-04T21:41:17.059Z,44.19
2023-05-04T21:46:18.921Z,44.29
2023-05-04T21:51:21.172Z,44.30
2023-05-04T21:56:22.949Z,44.25
2023-05-04T22:01:24.839Z,44.31
2023-05-04T22:06:27.409Z,44.20
2023-05-04T22:11:29.757Z,44.16
2023-05-04T22:16:31.743Z,43.92
2023-05-04T22:21:33.663Z,43.97
2023-05-04T22:26:35.680Z,43.96
2023-05-04T22:31:37.536Z,43.89
2023-05-04T22:36:39.624Z,43.97
2023-05-04T22:41:41.494Z,43.96
2023-05-04T22:46:43.224Z,43.75
2023-05-04T22:51:45.127Z,43.87
2023-05-04T22:56:46.834Z,43.86
2023-05-04T23:01:50.368Z,43.92
2023-05-04T23:06:53.352Z,43.88
2023-05-04T23:11:55.103Z,44.07
2023-05-04T23:16:56.851Z,44.23
2023-05-04T23:21:58.819Z,44.46
2023-05-04T23:27:00.552Z,44.35
2023-05-04T23:32:02.481Z,44.35
2023-05-04T23:37:04.516Z,44.43
2023-05-04T23:42:06.370Z,44.47
2023-05-04T23:47:08.111Z,44.51
2023-05-04T23:52:09.813Z,44.76
2023-05-04T23:57:11.719Z,44.94
